Time;durP1;ratioP1;P1;durP2;ratioP2;P2;SDS_P1;SDS_P2;PMS_P1;PMS_P2;Temp;Humidity;BMP_temperature;BMP_pressure;BME280_temperature;BME280_humidity;BME280_pressure;Samples;Min_cycle;Max_cycle;Signal;HPM_P1;HPM_P2
2021/12/08 00:00:13;;;;;;;5.10;1.95;;;3.20;99.90;;;;;;5048729;28;20192;-86
2021/12/08 00:02:39;;;;;;;1.63;1.35;;;3.10;99.90;;;;;;5034071;28;20172;-87
2021/12/08 00:05:07;;;;;;;5.80;1.33;;;3.10;99.90;;;;;;5028417;28;20590;-87
2021/12/08 00:07:33;;;;;;;3.08;1.85;;;3.10;99.90;;;;;;5046385;28;20272;-85
2021/12/08 00:10:13;;;;;;;3.90;2.00;;;3.00;99.90;;;;;;5030967;28;20207;-84
2021/12/08 00:15:24;;;;;;;3.63;2.17;;;2.90;99.90;;;;;;5041382;28;20274;-85
2021/12/08 00:17:50;;;;;;;2.10;1.67;;;2.80;99.90;;;;;;5044315;28;20193;-86
2021/12/08 00:20:15;;;;;;;2.70;1.20;;;2.80;99.90;;;;;;5023123;28;20450;-84
2021/12/08 00:22:41;;;;;;;2.60;1.27;;;2.70;99.90;;;;;;5027186;28;20197;-85
2021/12/08 00:25:07;;;;;;;3.83;2.03;;;2.60;99.90;;;;;;5021636;28;20435;-85
2021/12/08 00:27:33;;;;;;;7.17;1.87;;;2.60;99.90;;;;;;5029977;28;20706;-86
2021/12/08 00:29:58;;;;;;;1.23;1.13;;;2.60;99.90;;;;;;5027596;28;20428;-85
2021/12/08 00:32:28;;;;;;;1.87;1.20;;;2.50;99.90;;;;;;5026974;28;20438;-85
2021/12/08 00:34:54;;;;;;;3.50;1.05;;;2.50;99.90;;;;;;5023270;28;20572;-86
2021/12/08 00:37:20;;;;;;;3.80;2.60;;;;;;;;;;5027355;28;20180;-85
2021/12/08 00:39:46;;;;;;;3.47;1.98;;;2.50;99.90;;;;;;5042043;28;20597;-85
2021/12/08 00:42:12;;;;;;;2.60;1.37;;;2.40;99.90;;;;;;5044909;28;20197;-86
2021/12/08 00:44:37;;;;;;;6.27;1.93;;;2.30;99.90;;;;;;5045914;28;20201;-84
2021/12/08 00:47:04;;;;;;;3.07;1.67;;;2.20;99.90;;;;;;5046776;28;20208;-86
2021/12/08 00:49:30;;;;;;;4.72;1.75;;;2.10;99.90;;;;;;5025866;28;20192;-84
2021/12/08 00:51:56;;;;;;;1.90;1.37;;;2.10;99.90;;;;;;5024713;28;20190;-84
2021/12/08 00:54:21;;;;;;;2.20;1.30;;;2.10;99.90;;;;;;5044168;28;20566;-85
2021/12/08 00:56:47;;;;;;;5.00;1.40;;;2.00;99.90;;;;;;5026845;28;20902;-86
2021/12/08 00:59:13;;;;;;;4.27;1.63;;;;;;;;;;5032510;28;20276;-85
2021/12/08 01:01:39;;;;;;;3.27;1.73;;;;;;;;;;5042337;28;20566;-84
2021/12/08 01:04:06;;;;;;;3.22;1.60;;;1.90;99.90;;;;;;5044790;28;20475;-83
2021/12/08 01:06:32;;;;;;;1.60;1.30;;;1.90;99.90;;;;;;5035189;28;20250;-88
2021/12/08 01:08:57;;;;;;;3.93;1.33;;;3.40;99.90;;;;;;5047556;28;20177;-85
2021/12/08 01:11:24;;;;;;;4.27;1.87;;;1.90;99.90;;;;;;5026554;28;20189;-85
2021/12/08 01:13:51;;;;;;;1.63;1.48;;;1.80;99.90;;;;;;5026555;28;20208;-82
2021/12/08 01:16:19;;;;;;;4.47;1.98;;;1.80;99.90;;;;;;5027547;28;20254;-86
2021/12/08 01:18:45;;;;;;;2.47;1.65;;;1.70;99.90;;;;;;5025119;28;20212;-81
2021/12/08 01:21:11;;;;;;;5.23;1.90;;;2.40;99.90;;;;;;5024097;28;20180;-85
2021/12/08 01:23:38;;;;;;;3.23;2.07;;;1.70;99.90;;;;;;5042878;28;20197;-86
2021/12/08 01:26:04;;;;;;;2.85;1.75;;;1.60;99.90;;;;;;5041516;28;20431;-84
2021/12/08 01:28:30;;;;;;;3.55;1.73;;;1.60;99.90;;;;;;5016163;28;20176;-85
2021/12/08 01:30:57;;;;;;;4.13;2.40;;;1.60;99.90;;;;;;5040321;28;20173;-83
2021/12/08 01:33:24;;;;;;;1.98;1.58;;;1.60;99.90;;;;;;5021367;28;20189;-83
2021/12/08 01:35:50;;;;;;;3.42;1.95;;;1.60;99.90;;;;;;5016514;28;20207;-83
2021/12/08 01:38:16;;;;;;;1.60;1.17;;;1.60;99.90;;;;;;5038308;28;20181;-83
2021/12/08 01:40:42;;;;;;;1.57;1.30;;;1.60;99.90;;;;;;5042606;28;20181;-86
2021/12/08 01:43:22;;;;;;;2.63;1.55;;;1.60;99.90;;;;;;5041991;28;20216;-85
2021/12/08 01:45:58;;;;;;;2.97;1.80;;;1.50;99.90;;;;;;5038879;28;20261;-86
2021/12/08 01:48:24;;;;;;;4.35;2.15;;;1.50;99.90;;;;;;5026789;28;20185;-85
2021/12/08 01:50:54;;;;;;;4.27;2.00;;;1.60;99.90;;;;;;5024280;28;20241;-85
2021/12/08 01:53:21;;;;;;;4.75;1.85;;;1.60;99.90;;;;;;5025361;28;21597;-89
2021/12/08 01:55:47;;;;;;;4.30;1.98;;;1.50;99.90;;;;;;5025410;28;20193;-84
2021/12/08 01:58:14;;;;;;;3.13;1.57;;;1.50;99.90;;;;;;5025758;28;20181;-84
2021/12/08 02:01:11;;;;;;;1.50;1.38;;;1.50;99.90;;;;;;5022460;28;20170;-86
2021/12/08 02:03:38;;;;;;;3.72;1.70;;;1.50;99.90;;;;;;5043611;28;20209;-85
2021/12/08 02:06:06;;;;;;;6.65;1.77;;;1.40;99.90;;;;;;5045556;28;20645;-85
2021/12/08 02:08:33;;;;;;;6.53;2.60;;;1.50;99.90;;;;;;5041433;28;20556;-85
2021/12/08 02:11:02;;;;;;;3.13;2.08;;;1.50;99.90;;;;;;5029397;28;20181;-84
2021/12/08 02:13:31;;;;;;;3.03;1.35;;;1.70;99.90;;;;;;5030041;28;20291;-86
2021/12/08 02:15:56;;;;;;;2.25;2.00;;;1.60;99.90;;;;;;5027024;28;20261;-87
2021/12/08 02:18:22;;;;;;;3.50;1.43;;;1.60;99.90;;;;;;5021261;28;20255;-84
2021/12/08 02:20:50;;;;;;;2.23;1.80;;;1.50;99.90;;;;;;5029642;28;20215;-87
2021/12/08 02:23:17;;;;;;;7.85;1.90;;;1.50;99.90;;;;;;5028512;28;21173;-85
2021/12/08 02:25:45;;;;;;;4.70;1.92;;;1.60;99.90;;;;;;5029257;28;20192;-85
2021/12/08 02:28:11;;;;;;;2.67;1.70;;;1.60;99.90;;;;;;5030820;28;20220;-84
2021/12/08 02:30:47;;;;;;;5.20;1.63;;;1.60;99.90;;;;;;5047158;28;20203;-84
2021/12/08 02:47:11;;;;;;;1.83;1.52;;;1.60;99.90;;;;;;5045840;28;20192;-85
2021/12/08 02:49:38;;;;;;;1.60;1.13;;;1.60;99.90;;;;;;5020465;28;20226;-86
2021/12/08 02:52:06;;;;;;;2.13;1.75;;;1.60;99.90;;;;;;5045918;28;20260;-86
2021/12/08 02:54:37;;;;;;;2.80;1.70;;;1.60;99.90;;;;;;5025369;28;20323;-86
2021/12/08 02:57:03;;;;;;;3.05;1.50;;;1.50;99.90;;;;;;5021208;28;20182;-86
2021/12/08 02:59:28;;;;;;;4.30;1.70;;;1.60;99.90;;;;;;5047365;28;20185;-85
2021/12/08 03:01:54;;;;;;;1.87;1.60;;;1.60;99.90;;;;;;5023131;28;20284;-84
2021/12/08 03:04:20;;;;;;;2.93;1.70;;;1.60;99.90;;;;;;5020731;28;20652;-83
2021/12/08 03:06:45;;;;;;;4.27;1.93;;;1.70;99.90;;;;;;5027901;28;20199;-87
2021/12/08 03:09:11;;;;;;;2.30;1.63;;;;;;;;;;5027101;28;20191;-84
2021/12/08 03:11:37;;;;;;;3.33;1.63;;;1.70;99.90;;;;;;5045623;28;20195;-86
2021/12/08 03:14:10;;;;;;;3.93;1.57;;;1.70;99.90;;;;;;5024849;28;20502;-85
2021/12/08 03:16:39;;;;;;;3.00;1.63;;;1.80;99.90;;;;;;5046257;28;20264;-84
2021/12/08 03:19:05;;;;;;;1.83;1.70;;;1.80;99.90;;;;;;5028539;28;20683;-84
2021/12/08 03:21:32;;;;;;;1.48;1.38;;;1.70;99.90;;;;;;5028602;28;20185;-83
2021/12/08 03:24:15;;;;;;;3.97;2.55;;;1.70;99.90;;;;;;5026436;28;20197;-86
2021/12/08 03:26:49;;;;;;;5.22;2.88;;;1.80;99.90;;;;;;5025472;28;21114;-87
2021/12/08 03:29:25;;;;;;;3.40;1.85;;;1.80;99.90;;;;;;5027864;28;20602;-83
2021/12/08 03:31:53;;;;;;;2.38;1.63;;;1.80;99.90;;;;;;5044729;28;20583;-83
2021/12/08 03:34:21;;;;;;;3.90;2.08;;;1.80;99.90;;;;;;5027350;28;20291;-86
2021/12/08 03:36:47;;;;;;;3.45;1.80;;;1.80;99.90;;;;;;5020568;28;20251;-86
2021/12/08 03:39:13;;;;;;;2.25;2.05;;;1.90;99.90;;;;;;5024833;28;20174;-83
2021/12/08 03:41:39;;;;;;;3.08;1.70;;;1.80;99.90;;;;;;5022036;28;20195;-85
2021/12/08 03:44:05;;;;;;;8.33;2.73;;;1.80;99.90;;;;;;5026418;28;20212;-83
2021/12/08 03:46:38;;;;;;;4.88;2.05;;;1.80;99.90;;;;;;5020400;28;20197;-85
2021/12/08 03:49:06;;;;;;;2.22;1.80;;;1.90;99.90;;;;;;5026257;28;20184;-85
2021/12/08 03:51:32;;;;;;;2.97;2.08;;;1.90;99.90;;;;;;5024224;28;20628;-87
2021/12/08 03:53:58;;;;;;;4.60;2.87;;;;;;;;;;5025734;28;20232;-84
2021/12/08 03:56:24;;;;;;;2.47;1.60;;;1.90;99.90;;;;;;5023776;28;20975;-88
2021/12/08 03:58:50;;;;;;;2.10;1.90;;;;;;;;;;5025284;28;20534;-86
2021/12/08 04:01:15;;;;;;;4.65;2.45;;;1.90;99.90;;;;;;5034782;28;20605;-83
2021/12/08 04:03:48;;;;;;;5.70;2.47;;;1.90;99.90;;;;;;5023035;28;20193;-86
2021/12/08 04:06:27;;;;;;;2.95;2.05;;;1.90;99.90;;;;;;5025164;28;20188;-84
2021/12/08 04:08:56;;;;;;;5.75;3.38;;;1.90;99.90;;;;;;5032792;28;20173;-83
2021/12/08 04:11:22;;;;;;;2.25;2.05;;;1.90;99.90;;;;;;5039413;28;20196;-88
2021/12/08 04:14:01;;;;;;;4.60;3.38;;;1.80;99.90;;;;;;5014070;28;20197;-86
2021/12/08 04:16:33;;;;;;;2.83;2.20;;;1.80;99.90;;;;;;5024488;28;20882;-83
2021/12/08 04:19:01;;;;;;;20.50;2.78;;;1.90;99.90;;;;;;5024419;28;20188;-82
2021/12/08 04:21:28;;;;;;;3.60;2.10;;;1.90;99.90;;;;;;5018294;28;20173;-85
2021/12/08 04:23:54;;;;;;;3.17;2.88;;;2.00;99.90;;;;;;5022767;28;20201;-85
2021/12/08 04:26:28;;;;;;;4.17;3.00;;;2.00;99.90;;;;;;5021071;28;20188;-85
2021/12/08 04:28:54;;;;;;;3.22;2.67;;;2.10;99.90;;;;;;5037582;28;20192;-85
2021/12/08 04:31:27;;;;;;;3.80;3.10;;;2.10;99.90;;;;;;5027013;28;20181;-86
2021/12/08 04:33:58;;;;;;;3.95;2.85;;;2.20;99.90;;;;;;5051108;28;20185;-86
2021/12/08 04:36:30;;;;;;;6.97;3.03;;;2.20;99.90;;;;;;5056365;28;20149;-83
2021/12/08 04:38:58;;;;;;;8.75;3.60;;;2.20;99.90;;;;;;5048171;28;20171;-84
2021/12/08 04:41:34;;;;;;;2.83;2.42;;;2.30;99.90;;;;;;5021830;28;20189;-84
2021/12/08 04:52:14;;;;;;;5.55;3.88;;;2.50;99.90;;;;;;5042423;28;20204;-88
2021/12/08 05:00:42;;;;;;;6.30;3.70;;;2.60;99.90;;;;;;5037477;28;20257;-85
2021/12/08 05:06:19;;;;;;;3.05;2.75;;;2.70;99.90;;;;;;5013809;28;20190;-86
2021/12/08 05:08:47;;;;;;;8.15;3.35;;;2.70;99.90;;;;;;5028464;28;20173;-88
2021/12/08 05:11:21;;;;;;;6.07;3.55;;;2.70;99.90;;;;;;5024927;28;20186;-87
2021/12/08 05:13:52;;;;;;;8.00;4.43;;;2.70;99.90;;;;;;5038479;28;20204;-88
2021/12/08 05:16:18;;;;;;;5.60;3.30;;;2.70;99.90;;;;;;5020306;28;20268;-85
2021/12/08 05:18:45;;;;;;;7.15;3.78;;;2.70;99.90;;;;;;5021139;28;20231;-85
2021/12/08 05:21:39;;;;;;;8.13;5.25;;;2.70;99.90;;;;;;5024957;28;20773;-88
2021/12/08 05:24:19;;;;;;;7.63;5.00;;;2.70;99.90;;;;;;5039869;28;20228;-87
2021/12/08 05:26:48;;;;;;;6.53;4.07;;;2.70;99.90;;;;;;5024465;28;20185;-86
2021/12/08 05:29:24;;;;;;;10.75;6.00;;;2.90;99.90;;;;;;5013316;28;20544;-86
2021/12/08 05:31:51;;;;;;;8.00;4.75;;;2.90;99.90;;;;;;5022286;28;20177;-84
2021/12/08 05:34:18;;;;;;;8.88;4.45;;;3.00;99.90;;;;;;5039208;28;20213;-85
2021/12/08 05:36:43;;;;;;;7.88;4.80;;;2.90;99.90;;;;;;5024025;28;20768;-85
2021/12/08 05:39:13;;;;;;;8.37;4.37;;;2.90;99.90;;;;;;5039747;28;20188;-86
2021/12/08 05:41:42;;;;;;;7.90;5.57;;;2.90;99.90;;;;;;5031176;28;20195;-84
2021/12/08 05:44:10;;;;;;;10.35;4.80;;;2.90;99.90;;;;;;5049237;28;20208;-82
2021/12/08 05:46:41;;;;;;;7.32;5.65;;;2.90;99.90;;;;;;5015002;28;20222;-85
2021/12/08 05:49:08;;;;;;;7.78;5.28;;;2.90;99.90;;;;;;5022044;28;20196;-86
2021/12/08 05:51:35;;;;;;;10.38;6.07;;;2.90;99.90;;;;;;5033606;28;20695;-87
2021/12/08 05:54:11;;;;;;;12.43;5.20;;;2.90;99.90;;;;;;5033050;28;20826;-85
2021/12/08 05:56:36;;;;;;;9.20;5.60;;;3.00;99.90;;;;;;5021609;28;20185;-87
2021/12/08 05:59:04;;;;;;;9.10;5.40;;;3.10;99.90;;;;;;5012127;28;20173;-84
2021/12/08 06:01:37;;;;;;;6.85;4.82;;;3.00;99.90;;;;;;5019040;28;20772;-84
2021/12/08 06:04:06;;;;;;;10.07;6.90;;;3.00;99.90;;;;;;5003929;28;20205;-86
2021/12/08 06:06:33;;;;;;;11.50;6.65;;;3.10;99.90;;;;;;5033846;28;20257;-85
2021/12/08 06:08:58;;;;;;;13.15;8.07;;;3.10;99.90;;;;;;5040973;28;20185;-85
2021/12/08 06:11:26;;;;;;;13.43;8.10;;;3.20;99.90;;;;;;5003609;28;20185;-82
2021/12/08 06:13:53;;;;;;;13.25;8.30;;;3.20;99.90;;;;;;5020928;28;20900;-85
2021/12/08 06:16:21;;;;;;;13.35;8.27;;;3.30;99.90;;;;;;5018450;28;20177;-83
2021/12/08 06:18:48;;;;;;;15.63;9.38;;;3.30;99.90;;;;;;5009176;28;20180;-82
2021/12/08 06:21:18;;;;;;;14.48;8.63;;;3.40;99.90;;;;;;5014872;28;20185;-83
2021/12/08 06:23:45;;;;;;;13.20;8.52;;;3.50;99.90;;;;;;5035768;28;21494;-84
2021/12/08 06:26:13;;;;;;;13.20;7.85;;;3.40;99.90;;;;;;5021401;28;20872;-84
2021/12/08 06:28:40;;;;;;;13.20;8.65;;;3.50;99.90;;;;;;5039724;28;20192;-83
2021/12/08 06:31:07;;;;;;;13.43;8.95;;;3.50;99.90;;;;;;5035593;28;20235;-83
2021/12/08 06:33:33;;;;;;;16.25;8.00;;;3.50;99.90;;;;;;5031336;28;20232;-84
2021/12/08 06:36:11;;;;;;;13.57;8.10;;;3.50;99.90;;;;;;5033958;28;20228;-86
2021/12/08 06:38:38;;;;;;;10.55;6.53;;;3.50;99.90;;;;;;5014928;28;20666;-85
2021/12/08 06:41:11;;;;;;;13.35;7.75;;;3.50;99.90;;;;;;5015265;28;20231;-83
2021/12/08 06:43:46;;;;;;;12.10;8.07;;;3.50;99.90;;;;;;5034102;28;20976;-82
2021/12/08 06:46:12;;;;;;;10.18;6.43;;;3.50;99.90;;;;;;5013743;28;20189;-83
2021/12/08 06:48:45;;;;;;;12.30;8.43;;;3.50;99.90;;;;;;5033037;28;20193;-83
2021/12/08 06:51:25;;;;;;;9.65;6.05;;;3.50;99.90;;;;;;5019897;28;20427;-83
2021/12/08 06:53:54;;;;;;;11.13;7.25;;;3.50;99.90;;;;;;5062993;28;20280;-85
2021/12/08 06:56:39;;;;;;;10.55;6.88;;;3.50;99.90;;;;;;5024380;28;20837;-82
2021/12/08 06:59:09;;;;;;;10.52;6.53;;;3.50;99.90;;;;;;5019269;28;20184;-88
2021/12/08 07:01:56;;;;;;;13.10;6.50;;;3.50;99.90;;;;;;5039940;28;20201;-83
2021/12/08 07:04:29;;;;;;;13.07;7.28;;;3.60;99.90;;;;;;5034353;28;20232;-84
2021/12/08 07:07:09;;;;;;;10.73;6.57;;;3.60;99.90;;;;;;5038317;28;20189;-85
2021/12/08 07:09:49;;;;;;;10.60;7.40;;;3.60;99.90;;;;;;5020312;28;20192;-83
2021/12/08 07:12:21;;;;;;;6.85;5.28;;;3.60;99.90;;;;;;5048024;28;20173;-83
2021/12/08 07:14:51;;;;;;;11.27;6.32;;;3.60;99.90;;;;;;5039545;28;20231;-83
2021/12/08 07:17:23;;;;;;;14.40;7.22;;;3.60;99.90;;;;;;5030762;28;20303;-85
2021/12/08 07:20:03;;;;;;;8.73;5.68;;;3.60;99.90;;;;;;5036237;28;20181;-83
2021/12/08 07:22:32;;;;;;;11.50;5.85;;;3.70;99.90;;;;;;5036186;28;20503;-86
2021/12/08 07:25:00;;;;;;;11.38;6.32;;;3.70;99.90;;;;;;5029039;28;20272;-85
2021/12/08 07:27:31;;;;;;;7.53;5.00;;;3.70;99.90;;;;;;5042415;28;20189;-85
2021/12/08 07:30:01;;;;;;;8.65;6.13;;;3.80;99.90;;;;;;5042736;28;20647;-84
2021/12/08 07:32:33;;;;;;;10.02;5.38;;;3.70;99.90;;;;;;5018481;28;20179;-84
2021/12/08 07:35:06;;;;;;;6.25;4.78;;;3.70;99.90;;;;;;5044046;28;20212;-83
2021/12/08 07:37:34;;;;;;;10.80;6.05;;;3.70;99.90;;;;;;5035991;28;20189;-84
2021/12/08 07:40:11;;;;;;;10.93;6.50;;;3.70;99.90;;;;;;5036392;28;20169;-82
2021/12/08 07:42:42;;;;;;;18.40;8.60;;;3.80;99.90;;;;;;5049055;28;20207;-82
2021/12/08 07:45:12;;;;;;;11.40;6.25;;;3.70;99.90;;;;;;5048464;28;20276;-82
2021/12/08 07:47:40;;;;;;;9.68;6.35;;;3.80;99.90;;;;;;5052478;28;20735;-86
2021/12/08 07:50:34;;;;;;;10.30;4.85;;;3.80;99.90;;;;;;5043982;28;20189;-87
2021/12/08 07:53:01;;;;;;;9.60;7.13;;;3.80;99.90;;;;;;5029303;28;20208;-85
2021/12/08 07:55:34;;;;;;;9.85;6.70;;;3.90;99.90;;;;;;5017334;28;20298;-84
2021/12/08 07:58:00;;;;;;;15.50;7.63;;;3.90;99.90;;;;;;5043661;28;20185;-88
2021/12/08 08:00:35;;;;;;;9.65;5.68;;;3.70;99.90;;;;;;5022800;28;20776;-86
2021/12/08 08:03:02;;;;;;;9.82;7.05;;;4.00;99.90;;;;;;5026505;28;20267;-84
2021/12/08 08:05:29;;;;;;;9.95;7.20;;;4.00;99.90;;;;;;5018200;28;20302;-85
2021/12/08 08:08:02;;;;;;;9.00;6.15;;;4.00;99.90;;;;;;5036854;28;20181;-84
2021/12/08 08:10:28;;;;;;;12.60;6.75;;;4.10;99.90;;;;;;5026320;28;20188;-86
2021/12/08 08:13:00;;;;;;;8.70;5.43;;;4.20;99.90;;;;;;5041696;28;20637;-87
2021/12/08 08:15:26;;;;;;;8.88;5.78;;;4.20;99.90;;;;;;5017026;28;20197;-87
2021/12/08 08:17:54;;;;;;;6.40;4.72;;;4.20;99.90;;;;;;5022647;28;20970;-86
2021/12/08 08:20:30;;;;;;;4.20;3.53;;;4.20;99.90;;;;;;5024913;28;20276;-85
2021/12/08 08:22:57;;;;;;;5.70;4.07;;;4.20;99.90;;;;;;5025027;28;20742;-85
2021/12/08 08:25:26;;;;;;;9.30;4.72;;;4.10;99.90;;;;;;5026523;28;20579;-84
2021/12/08 08:27:52;;;;;;;10.82;6.15;;;4.10;99.90;;;;;;5027182;28;20189;-84
2021/12/08 08:30:22;;;;;;;6.63;3.95;;;4.10;99.90;;;;;;5027103;28;20177;-86
2021/12/08 08:32:52;;;;;;;6.13;4.40;;;4.10;99.90;;;;;;5020031;28;20720;-85
2021/12/08 08:35:26;;;;;;;7.68;4.53;;;3.30;99.90;;;;;;5042350;28;20259;-84
2021/12/08 08:37:53;;;;;;;7.57;4.78;;;4.10;99.90;;;;;;5039464;28;20780;-88
2021/12/08 08:40:29;;;;;;;8.93;5.22;;;4.20;99.90;;;;;;5044509;28;20185;-88
2021/12/08 08:42:56;;;;;;;10.10;4.97;;;4.20;99.90;;;;;;5017578;28;20231;-85
2021/12/08 08:45:37;;;;;;;7.53;5.22;;;4.30;99.90;;;;;;5052828;28;20227;-83
2021/12/08 08:48:16;;;;;;;7.88;6.03;;;4.20;99.90;;;;;;5032075;28;20254;-85
2021/12/08 08:50:44;;;;;;;5.65;4.10;;;4.20;99.90;;;;;;5041269;28;20238;-86
2021/12/08 08:53:11;;;;;;;7.18;5.20;;;4.20;99.90;;;;;;5016838;28;20204;-86
2021/12/08 08:55:44;;;;;;;9.00;5.05;;;4.20;99.90;;;;;;5023405;28;22157;-86
2021/12/08 08:58:11;;;;;;;5.97;3.95;;;4.20;99.90;;;;;;5016101;28;20637;-85
2021/12/08 09:01:05;;;;;;;6.85;4.05;;;4.30;99.90;;;;;;5019062;28;20182;-86
2021/12/08 09:03:34;;;;;;;4.95;4.13;;;4.30;99.90;;;;;;5009842;28;20216;-86
2021/12/08 09:06:14;;;;;;;6.93;4.50;;;4.40;99.90;;;;;;5023698;28;20668;-84
2021/12/08 09:08:41;;;;;;;5.55;4.30;;;4.50;99.90;;;;;;5039920;28;20185;-85
2021/12/08 09:11:15;;;;;;;7.55;4.68;;;4.50;99.90;;;;;;5042184;28;20672;-84
2021/12/08 09:14:00;;;;;;;8.27;4.75;;;4.50;99.90;;;;;;5042876;28;20284;-85
2021/12/08 09:16:35;;;;;;;8.02;4.32;;;4.50;99.90;;;;;;5043218;28;20323;-87
2021/12/08 09:19:09;;;;;;;6.90;4.53;;;4.60;99.90;;;;;;5026704;28;20172;-83
2021/12/08 09:21:49;;;;;;;6.05;4.22;;;4.60;99.90;;;;;;5040324;28;20206;-82
2021/12/08 09:24:37;;;;;;;6.88;4.75;;;4.50;99.90;;;;;;5022168;28;20200;-82
2021/12/08 09:27:05;;;;;;;6.05;3.80;;;4.50;99.90;;;;;;5014694;28;20209;-82
2021/12/08 09:29:44;;;;;;;4.38;3.60;;;4.50;99.90;;;;;;5021210;28;20185;-85
2021/12/08 09:32:23;;;;;;;5.30;3.85;;;4.50;99.90;;;;;;5026209;28;20176;-82
2021/12/08 09:34:58;;;;;;;4.93;4.03;;;4.50;99.90;;;;;;5026762;28;20201;-83
2021/12/08 09:37:30;;;;;;;8.07;4.65;;;4.50;99.90;;;;;;5022926;28;20556;-85
2021/12/08 09:40:07;;;;;;;5.70;4.38;;;4.50;99.90;;;;;;5021361;28;20177;-83
2021/12/08 09:42:41;;;;;;;7.63;5.22;;;4.60;99.90;;;;;;5024407;28;20195;-86
2021/12/08 09:45:15;;;;;;;6.28;4.57;;;4.60;99.90;;;;;;5024005;28;20195;-86
2021/12/08 09:47:40;;;;;;;5.65;4.05;;;4.60;99.90;;;;;;5029110;28;20193;-86
2021/12/08 09:50:09;;;;;;;7.83;4.70;;;4.60;99.90;;;;;;5031467;28;20657;-86
2021/12/08 09:52:36;;;;;;;8.10;4.13;;;4.60;99.90;;;;;;5013929;28;20530;-86
2021/12/08 09:55:04;;;;;;;6.65;4.22;;;4.60;99.90;;;;;;5016965;28;20213;-84
2021/12/08 09:57:30;;;;;;;8.93;4.25;;;4.70;99.90;;;;;;5017683;28;20181;-84
2021/12/08 09:59:56;;;;;;;5.73;4.23;;;4.70;99.90;;;;;;5018308;28;20185;-86
2021/12/08 10:02:29;;;;;;;9.70;3.70;;;4.70;99.90;;;;;;5022034;28;20181;-81
2021/12/08 10:05:10;;;;;;;9.90;5.25;;;4.70;99.90;;;;;;5034574;28;20267;-81
2021/12/08 10:07:35;;;;;;;4.95;3.42;;;4.70;99.90;;;;;;5011871;28;20184;-84
2021/12/08 10:10:02;;;;;;;4.87;3.23;;;4.60;99.90;;;;;;5023046;28;20472;-84
2021/12/08 10:12:28;;;;;;;6.22;4.22;;;4.60;99.90;;;;;;5043078;28;20922;-85
2021/12/08 10:14:54;;;;;;;5.53;3.30;;;4.60;99.90;;;;;;5054315;28;20196;-80
2021/12/08 10:17:20;;;;;;;11.83;3.77;;;4.70;99.90;;;;;;5036715;28;20247;-86
2021/12/08 10:20:03;;;;;;;5.72;4.68;;;4.70;99.90;;;;;;5025412;28;20181;-83
2021/12/08 10:22:29;;;;;;;11.25;5.40;;;4.80;99.90;;;;;;5022713;28;20192;-83
2021/12/08 10:25:22;;;;;;;4.70;4.20;;;4.70;99.90;;;;;;5037654;28;20188;-83
2021/12/08 10:28:04;;;;;;;6.22;4.30;;;4.80;99.90;;;;;;5032996;28;20312;-85
2021/12/08 10:30:32;;;;;;;10.52;4.80;;;4.80;99.90;;;;;;5019669;28;20189;-86
2021/12/08 10:33:00;;;;;;;8.65;5.47;;;4.80;99.90;;;;;;5040467;28;20212;-83
2021/12/08 10:35:48;;;;;;;7.13;4.15;;;4.80;99.90;;;;;;5025799;28;20209;-84
2021/12/08 10:38:16;;;;;;;5.85;4.25;;;4.80;99.90;;;;;;5043086;28;20183;-83
2021/12/08 10:41:04;;;;;;;6.00;3.30;;;4.80;99.90;;;;;;5020991;28;20188;-85
2021/12/08 10:43:30;;;;;;;7.00;5.00;;;4.90;99.90;;;;;;5022220;28;20311;-83
2021/12/08 10:46:00;;;;;;;7.93;4.80;;;5.00;99.90;;;;;;5025157;28;20732;-83
2021/12/08 10:48:34;;;;;;;7.90;5.35;;;5.00;99.90;;;;;;5022437;28;20189;-81
2021/12/08 10:56:40;;;;;;;7.72;5.28;;;5.20;99.90;;;;;;5041294;28;20596;-80
2021/12/08 10:59:06;;;;;;;11.23;5.22;;;5.30;99.90;;;;;;5059907;28;20177;-84
2021/12/08 11:01:33;;;;;;;6.70;5.03;;;5.50;99.90;;;;;;5023425;28;20316;-85
2021/12/08 11:04:05;;;;;;;5.53;4.60;;;5.50;99.90;;;;;;5024923;28;20212;-82
2021/12/08 11:06:36;;;;;;;5.82;5.05;;;5.50;99.90;;;;;;5021345;28;20257;-87
2021/12/08 11:09:06;;;;;;;7.80;4.70;;;5.70;99.90;;;;;;5017006;28;20176;-82
2021/12/08 11:11:34;;;;;;;4.82;4.05;;;5.60;99.90;;;;;;5021531;28;20220;-86
2021/12/08 11:14:03;;;;;;;3.83;3.38;;;5.60;99.90;;;;;;5048625;28;20827;-82
2021/12/08 11:16:32;;;;;;;9.45;4.60;;;5.60;99.90;;;;;;5017952;28;20215;-87
2021/12/08 11:19:13;;;;;;;7.20;4.63;;;5.70;99.90;;;;;;5014337;28;20191;-86
2021/12/08 11:21:46;;;;;;;6.78;4.80;;;5.80;99.90;;;;;;5031738;28;20184;-86
2021/12/08 11:24:33;;;;;;;7.78;5.22;;;5.90;99.90;;;;;;5018999;28;20205;-84
2021/12/08 11:27:00;;;;;;;7.70;4.95;;;6.30;99.90;;;;;;5023813;28;20252;-83
2021/12/08 11:29:28;;;;;;;8.30;4.72;;;6.30;99.90;;;;;;5013244;28;20231;-88
2021/12/08 11:32:12;;;;;;;5.75;5.13;;;6.50;99.90;;;;;;5018688;28;20215;-85
2021/12/08 11:34:43;;;;;;;5.07;3.95;;;6.60;99.90;;;;;;5019427;28;20209;-81
2021/12/08 11:37:13;;;;;;;4.95;4.25;;;6.80;99.90;;;;;;5019398;28;20188;-84
2021/12/08 11:39:41;;;;;;;8.90;5.30;;;6.90;99.90;;;;;;5036798;28;20185;-83
2021/12/08 11:42:16;;;;;;;6.00;3.80;;;6.90;99.90;;;;;;5009816;28;20197;-82
2021/12/08 11:44:46;;;;;;;8.82;4.28;;;6.60;99.90;;;;;;5051229;28;20252;-81
2021/12/08 11:47:20;;;;;;;7.22;4.20;;;6.50;99.90;;;;;;5048652;28;20701;-88
2021/12/08 11:49:52;;;;;;;7.63;5.22;;;6.30;99.90;;;;;;5019748;28;20628;-86
2021/12/08 11:52:23;;;;;;;9.38;4.97;;;6.40;99.90;;;;;;5038798;28;20185;-86
2021/12/08 11:54:53;;;;;;;5.97;4.07;;;6.40;99.90;;;;;;5036184;28;20205;-84
2021/12/08 11:57:30;;;;;;;9.10;4.80;;;6.50;99.90;;;;;;5032088;28;21439;-85
2021/12/08 12:00:15;;;;;;;6.68;4.38;;;6.60;99.90;;;;;;5038854;28;20181;-85
2021/12/08 12:02:53;;;;;;;7.05;4.55;;;4.70;99.90;;;;;;5018110;28;20186;-82
2021/12/08 12:05:32;;;;;;;11.05;5.15;;;6.70;99.90;;;;;;5040024;28;20675;-86
2021/12/08 12:07:58;;;;;;;11.82;6.07;;;6.60;99.90;;;;;;5045342;28;20291;-86
2021/12/08 12:10:28;;;;;;;7.82;5.30;;;6.50;99.90;;;;;;5013284;28;20180;-84
2021/12/08 12:12:53;;;;;;;13.75;6.82;;;6.60;99.90;;;;;;5032531;28;20209;-85
2021/12/08 12:15:21;;;;;;;14.30;8.50;;;6.90;99.90;;;;;;5043780;28;20215;-86
2021/12/08 12:17:47;;;;;;;9.05;6.00;;;6.80;99.90;;;;;;5013764;28;20843;-84
2021/12/08 12:20:45;;;;;;;7.35;5.28;;;6.80;99.90;;;;;;5027664;28;20205;-84
2021/12/08 12:23:34;;;;;;;8.35;5.85;;;6.60;99.90;;;;;;5037216;28;20712;-84
2021/12/08 12:26:25;;;;;;;7.38;5.45;;;6.50;99.90;;;;;;5010719;28;20317;-82
2021/12/08 12:29:14;;;;;;;8.50;6.53;;;6.40;99.90;;;;;;5017087;28;20772;-86
2021/12/08 12:31:54;;;;;;;8.07;6.63;;;6.40;99.90;;;;;;5013775;28;20267;-84
2021/12/08 12:34:22;;;;;;;7.38;6.32;;;6.30;99.90;;;;;;5040668;28;20208;-84
2021/12/08 12:36:47;;;;;;;11.60;6.45;;;6.20;99.90;;;;;;5041418;28;20676;-83
2021/12/08 12:39:20;;;;;;;10.00;6.73;;;6.00;99.90;;;;;;5040525;28;20213;-85
2021/12/08 12:42:12;;;;;;;10.85;6.65;;;6.00;99.90;;;;;;5021375;28;20193;-82
2021/12/08 12:44:40;;;;;;;8.85;6.80;;;6.10;99.90;;;;;;5021217;28;20220;-83
2021/12/08 12:49:36;;;;;;;10.83;7.67;;;6.30;99.90;;;;;;5041520;28;20181;-82
2021/12/08 12:52:05;;;;;;;7.55;5.60;;;6.60;99.90;;;;;;5009598;28;20177;-82
2021/12/08 12:54:31;;;;;;;10.02;6.30;;;6.60;99.90;;;;;;5032851;28;20205;-82
2021/12/08 12:56:58;;;;;;;11.95;7.15;;;6.70;99.90;;;;;;5018607;28;20185;-80
2021/12/08 12:59:36;;;;;;;9.52;7.30;;;6.90;99.90;;;;;;5017119;28;20173;-86
2021/12/08 13:02:20;;;;;;;10.20;7.05;;;6.90;99.90;;;;;;5013054;28;20243;-82
2021/12/08 13:05:00;;;;;;;8.90;7.00;;;7.10;99.90;;;;;;5032528;28;20242;-85
2021/12/08 13:07:28;;;;;;;9.82;7.63;;;7.10;99.90;;;;;;5017220;28;20181;-84
2021/12/08 13:10:07;;;;;;;8.15;6.70;;;7.20;99.90;;;;;;5015977;28;20224;-88
2021/12/08 13:12:36;;;;;;;11.05;6.68;;;7.00;99.90;;;;;;5015182;28;20204;-84
2021/12/08 13:15:21;;;;;;;8.27;6.25;;;7.00;99.90;;;;;;5045078;28;20193;-78
2021/12/08 13:18:17;;;;;;;6.97;6.28;;;6.90;99.90;;;;;;5015354;28;20828;-84
2021/12/08 13:20:56;;;;;;;9.32;6.22;;;6.40;99.90;;;;;;5013647;28;20251;-84
2021/12/08 13:23:25;;;;;;;8.15;6.53;;;6.40;99.90;;;;;;5035121;28;20262;-84
2021/12/08 13:26:07;;;;;;;11.80;7.32;;;6.20;99.90;;;;;;5019935;28;20220;-81
2021/12/08 13:28:46;;;;;;;11.82;7.18;;;6.10;99.90;;;;;;5015807;28;20215;-84
2021/12/08 13:31:25;;;;;;;13.18;8.07;;;6.00;99.90;;;;;;5019326;28;20744;-84
2021/12/08 13:33:51;;;;;;;9.75;7.05;;;5.80;99.90;;;;;;5015371;28;20208;-87
2021/12/08 13:36:19;;;;;;;14.33;7.23;;;5.60;99.90;;;;;;5031008;28;20209;-82
2021/12/08 13:38:46;;;;;;;13.82;7.90;;;5.60;99.90;;;;;;5014413;28;20831;-86
2021/12/08 13:41:16;;;;;;;13.65;8.00;;;5.40;99.90;;;;;;5037844;28;20264;-81
2021/12/08 13:43:45;;;;;;;9.15;6.25;;;5.40;99.90;;;;;;5023298;28;20275;-83
2021/12/08 13:46:31;;;;;;;13.32;8.13;;;5.20;99.90;;;;;;5041169;28;20238;-86
2021/12/08 13:49:19;;;;;;;15.38;7.93;;;5.30;99.90;;;;;;5021908;28;20669;-84
2021/12/08 13:52:12;;;;;;;10.00;7.57;;;5.10;99.90;;;;;;5017389;28;20702;-81
2021/12/08 13:54:40;;;;;;;11.05;7.90;;;5.10;99.90;;;;;;5016373;28;20209;-80
2021/12/08 13:57:27;;;;;;;10.15;6.57;;;5.00;99.90;;;;;;5039694;28;20187;-87